Terminal Aerodrome Forecast
Issued by NWS Portland, ME

Home | Current Version | Previous Version | Text Only | Print | Product List | Glossary On
Versions: 1 2 3 4 5 6 7 8 9 10 11 12 13 14 15 16 17
098
FTUS41 KGYX 301722
TAFPWM
TAF
KPWM 301722Z 3018/0118 12007KT P6SM SCT070
     FM302000 16009KT P6SM FEW070
     FM010000 VRB03KT P6SM BKN200
     FM010600 00000KT P6SM BKN050
     FM011300 14007KT P6SM OVC050=

USA.gov is the U.S. government's official web portal to all federal, state and local government web resources and services.